Time;durP1;ratioP1;P1;durP2;ratioP2;P2;SDS_P1;SDS_P2;PMS_P1;PMS_P2;Temp;Humidity;BMP_temperature;BMP_pressure;BME280_temperature;BME280_humidity;BME280_pressure;Samples;Min_cycle;Max_cycle;Signal;HPM_P1;HPM_P2
2022/02/19 00:00:24;;;;;;;0.98;0.98;;;10.80;65.20;;;10.23;48.89;93893.00;6104993;23;20197;-83
2022/02/19 00:02:52;;;;;;;0.95;0.80;;;10.90;65.30;;;10.22;48.90;93883.53;6129592;23;20180;-84
2022/02/19 00:05:20;;;;;;;0.90;0.90;;;10.80;65.30;;;10.23;49.09;93893.00;6104976;23;20593;-83
2022/02/19 00:07:48;;;;;;;1.40;0.85;;;10.80;65.30;;;10.21;48.48;93907.34;6105191;23;20510;-83
2022/02/19 00:10:15;;;;;;;0.85;0.85;;;10.80;65.00;;;10.18;48.18;93898.09;6129818;23;20268;-84
2022/02/19 00:12:42;;;;;;;1.88;1.10;;;10.80;64.80;;;10.19;47.77;93914.59;6129411;23;20585;-83
2022/02/19 00:15:09;;;;;;;0.80;0.80;;;10.80;64.60;;;10.16;47.47;93915.84;6129229;23;20201;-83
2022/02/19 00:17:37;;;;;;;0.80;0.80;;;10.70;64.20;;;10.17;47.31;93929.75;6129632;23;20200;-83
2022/02/19 00:20:07;;;;;;;0.70;0.70;;;10.70;64.20;;;10.15;47.57;93940.44;6129159;23;20614;-83
2022/02/19 00:22:35;;;;;;;1.00;1.00;;;10.70;64.30;;;10.16;47.45;93928.16;6105324;23;20177;-83
2022/02/19 00:25:05;;;;;;;0.95;0.77;;;10.70;64.10;;;10.15;47.52;93927.34;6154079;23;20212;-83
2022/02/19 00:27:32;;;;;;;0.95;0.90;;;10.70;64.00;;;10.13;47.10;93925.94;6105241;23;20177;-83
2022/02/19 00:29:59;;;;;;;0.60;0.60;;;10.70;63.90;;;10.08;47.21;93935.25;6105520;23;20187;-83
2022/02/19 00:32:30;;;;;;;0.70;0.70;;;10.70;63.90;;;10.07;46.86;93951.16;6082657;23;20219;-83
2022/02/19 00:34:58;;;;;;;0.88;0.80;;;10.70;63.70;;;10.02;46.26;93937.91;6104954;23;20300;-83
2022/02/19 00:37:25;;;;;;;0.70;0.70;;;10.70;63.40;;;10.04;46.44;93951.59;6081161;23;20532;-84
2022/02/19 00:39:53;;;;;;;0.95;0.90;;;10.70;63.40;;;9.94;45.21;93962.56;6129878;23;20188;-83
2022/02/19 00:42:20;;;;;;;1.02;0.90;;;10.60;62.60;;;9.94;45.41;93959.94;6128904;23;20173;-83
2022/02/19 00:44:47;;;;;;;0.90;0.80;;;10.60;62.60;;;9.91;45.14;93982.13;6105103;23;20644;-83
2022/02/19 00:47:16;;;;;;;0.80;0.80;;;10.60;62.30;;;9.91;45.11;93976.88;6129615;23;20169;-84
2022/02/19 00:49:47;;;;;;;0.80;0.80;;;10.60;62.40;;;9.88;45.48;93972.03;6130362;23;20185;-84
2022/02/19 00:52:14;;;;;;;1.08;1.00;;;10.60;62.50;;;9.90;44.50;94000.66;6104916;23;20673;-83
2022/02/19 00:54:43;;;;;;;1.52;0.82;;;10.50;62.10;;;9.90;44.38;94005.91;6081440;23;20225;-83
2022/02/19 00:57:13;;;;;;;1.00;0.90;;;10.50;61.80;;;9.92;43.80;94009.09;6105598;23;20173;-83
2022/02/19 00:59:41;;;;;;;0.90;0.90;;;10.60;61.50;;;9.92;42.38;93986.34;6104869;23;20201;-83
2022/02/19 01:02:09;;;;;;;1.25;0.95;;;10.50;60.70;;;9.91;41.81;93986.53;6129326;23;20490;-83
2022/02/19 01:04:41;;;;;;;1.00;0.80;;;10.50;60.30;;;9.96;41.23;94009.47;6106476;23;20197;-83
2022/02/19 01:07:09;;;;;;;1.00;0.90;;;10.50;59.80;;;9.97;41.74;93998.00;6107217;23;20181;-83
2022/02/19 01:09:36;;;;;;;1.13;1.00;;;10.50;60.00;;;9.99;42.15;94025.59;6106889;23;20216;-83
2022/02/19 01:12:05;;;;;;;0.80;0.80;;;10.50;60.30;;;9.98;40.73;94018.72;6106956;23;20674;-83
2022/02/19 01:14:32;;;;;;;1.50;0.95;;;10.50;59.20;;;9.99;40.41;94020.34;6106237;23;20268;-82
2022/02/19 01:16:59;;;;;;;1.33;1.00;;;10.50;58.70;;;10.00;39.74;94037.69;6130573;23;20181;-83
2022/02/19 01:19:26;;;;;;;1.05;0.93;;;10.50;58.40;;;10.01;40.41;94020.13;6130337;23;20239;-83
2022/02/19 01:21:54;;;;;;;1.30;1.00;;;10.50;58.70;;;10.03;40.30;94037.28;6106382;23;20177;-82
2022/02/19 01:24:22;;;;;;;1.00;1.00;;;10.50;58.60;;;10.04;39.67;94038.84;6106184;23;20200;-84
2022/02/19 01:26:54;;;;;;;1.08;1.05;;;10.60;58.30;;;10.04;38.42;94040.69;6107526;23;20173;-83
2022/02/19 01:29:21;;;;;;;2.65;1.10;;;10.60;57.00;;;10.01;39.45;94031.44;6130746;23;20189;-83
2022/02/19 01:31:49;;;;;;;2.08;1.20;;;10.50;57.70;;;10.01;38.59;94031.44;6106307;23;20640;-83
2022/02/19 01:34:16;;;;;;;0.80;0.80;;;10.50;57.10;;;10.02;39.44;94051.38;6131297;23;20197;-83
2022/02/19 01:36:44;;;;;;;1.65;1.00;;;10.60;57.90;;;10.01;39.07;94080.38;6130960;23;20252;-83
2022/02/19 01:39:14;;;;;;;3.08;1.17;;;10.50;57.50;;;10.02;39.24;94053.19;6107092;23;20213;-83
2022/02/19 01:41:43;;;;;;;1.83;1.05;;;10.50;57.50;;;10.01;39.48;94054.19;6130083;23;20560;-83
2022/02/19 01:44:13;;;;;;;1.55;1.00;;;10.60;57.60;;;10.02;39.59;94068.91;6106297;23;20200;-83
2022/02/19 01:46:41;;;;;;;1.15;1.05;;;10.60;57.60;;;9.99;39.52;94077.19;6106327;23;20185;-82
2022/02/19 01:49:09;;;;;;;0.88;0.88;;;10.60;57.70;;;9.98;39.99;94065.88;6130793;23;20197;-83
2022/02/19 01:51:38;;;;;;;1.30;1.00;;;10.60;58.00;;;9.97;40.14;94066.09;6130021;23;20518;-83
2022/02/19 01:54:10;;;;;;;1.42;1.02;;;10.60;58.10;;;9.91;40.60;94068.56;6107107;23;20176;-83
2022/02/19 01:57:00;;;;;;;1.27;1.10;;;10.50;58.40;;;9.86;40.88;94067.56;6110486;23;20181;-83
2022/02/19 01:59:53;;;;;;;1.38;1.00;;;10.50;59.90;;;9.83;41.55;94054.91;6132703;23;20208;-83
2022/02/19 02:02:39;;;;;;;1.65;1.20;;;10.50;59.20;;;9.80;41.35;94071.81;6134526;23;20271;-83
2022/02/19 02:05:36;;;;;;;1.20;1.10;;;10.40;59.00;;;9.77;41.88;94074.84;6094140;23;20248;-84
2022/02/19 02:08:07;;;;;;;3.80;1.20;;;10.50;59.50;;;9.73;41.96;94087.56;6106296;23;20185;-83
2022/02/19 02:10:36;;;;;;;2.47;1.30;;;10.40;59.50;;;9.69;42.15;94094.22;6105633;23;20240;-84
2022/02/19 02:13:16;;;;;;;2.72;1.10;;;10.40;60.60;;;9.65;42.12;94085.16;6108712;23;20177;-83
2022/02/19 02:15:43;;;;;;;2.13;1.20;;;10.40;59.70;;;9.60;42.49;94067.44;6130057;23;20201;-83
2022/02/19 02:18:16;;;;;;;1.88;1.05;;;10.30;59.90;;;9.57;42.51;94069.66;6108401;23;20558;-82
2022/02/19 02:20:43;;;;;;;2.63;1.23;;;10.30;60.00;;;9.56;42.72;94100.28;6105560;23;20541;-83
2022/02/19 02:23:16;;;;;;;3.97;1.35;;;10.30;60.10;;;9.54;42.78;94091.81;6129910;23;20173;-83
2022/02/19 02:25:46;;;;;;;2.63;1.15;;;10.20;60.10;;;9.53;43.21;94085.00;6105769;23;20703;-82
2022/02/19 02:28:16;;;;;;;2.53;1.30;;;10.20;60.50;;;9.49;43.01;94081.19;6130198;23;20181;-83
2022/02/19 02:30:43;;;;;;;2.63;1.13;;;10.20;60.30;;;9.42;43.03;94094.28;6105877;23;20512;-82
2022/02/19 02:33:18;;;;;;;3.67;1.42;;;10.10;60.20;;;9.41;43.37;94095.28;6106421;23;20628;-82
2022/02/19 02:35:52;;;;;;;2.42;1.40;;;10.10;60.50;;;9.41;43.28;94092.69;6106673;23;20204;-83
2022/02/19 02:38:36;;;;;;;1.33;1.23;;;10.10;60.50;;;9.39;43.72;94094.69;6089004;23;20200;-83
2022/02/19 02:41:04;;;;;;;2.28;1.20;;;10.10;60.70;;;9.34;43.83;94089.28;6129914;23;20201;-83
2022/02/19 02:43:32;;;;;;;2.28;1.27;;;10.00;60.70;;;9.30;43.72;94119.44;6105985;23;20207;-84
2022/02/19 02:46:00;;;;;;;3.40;1.30;;;10.10;60.60;;;9.23;43.90;94124.72;6129664;23;20583;-83
2022/02/19 02:48:27;;;;;;;3.92;1.30;;;10.00;60.60;;;9.16;43.86;94123.13;6106060;23;20491;-82
2022/02/19 02:50:56;;;;;;;2.53;1.30;;;9.90;62.10;;;9.10;44.13;94119.47;6105741;23;20280;-83
2022/02/19 02:53:47;;;;;;;3.00;1.38;;;10.00;60.70;;;8.98;44.18;94127.13;6154739;23;20257;-82
2022/02/19 02:56:15;;;;;;;1.83;1.38;;;9.90;61.90;;;8.88;43.98;94111.84;6105832;23;20584;-84
2022/02/19 02:58:42;;;;;;;2.72;1.30;;;9.80;62.00;;;8.84;44.03;94126.31;6130106;23;20185;-83
2022/02/19 03:01:11;;;;;;;3.42;1.90;;;9.70;61.90;;;8.78;44.21;94111.44;6153999;23;20245;-83
2022/02/19 03:03:41;;;;;;;4.35;1.40;;;9.70;62.10;;;8.74;44.29;94139.78;6083039;23;20173;-83
2022/02/19 03:06:11;;;;;;;2.80;1.40;;;9.60;62.10;;;8.69;44.23;94113.44;6105568;23;20200;-83
2022/02/19 03:08:42;;;;;;;3.05;1.50;;;9.50;62.20;;;8.69;44.40;94115.25;6107383;23;20196;-83
2022/02/19 03:11:12;;;;;;;1.40;1.30;;;9.50;62.20;;;8.68;44.63;94129.31;6129486;23;20204;-83
2022/02/19 03:13:41;;;;;;;2.63;1.50;;;9.50;62.30;;;8.66;44.55;94134.75;6082475;23;20643;-83
2022/02/19 03:16:08;;;;;;;2.80;1.50;;;9.40;62.30;;;8.61;44.67;94137.16;6105230;23;20197;-83
2022/02/19 03:18:37;;;;;;;2.13;1.30;;;9.40;62.40;;;8.58;44.78;94124.47;6105819;23;20280;-83
2022/02/19 03:21:04;;;;;;;2.35;1.20;;;9.40;62.60;;;8.56;44.94;94144.78;6105381;23;20197;-83
2022/02/19 03:23:33;;;;;;;4.35;1.50;;;9.40;62.50;;;8.50;45.18;94143.78;6105769;23;20181;-83
2022/02/19 03:26:01;;;;;;;4.63;1.40;;;9.30;62.50;;;8.44;45.21;94153.16;6105008;23;20221;-83
2022/02/19 03:28:30;;;;;;;3.63;1.42;;;9.30;62.50;;;8.39;45.12;94141.72;6105378;23;20181;-83
2022/02/19 03:30:58;;;;;;;2.67;1.27;;;9.20;62.60;;;8.33;45.49;94143.28;6105346;23;20193;-83
2022/02/19 03:33:38;;;;;;;3.03;1.50;;;9.20;62.70;;;8.29;45.61;94144.69;6108498;23;20181;-83
2022/02/19 03:36:06;;;;;;;3.70;1.70;;;9.10;62.80;;;8.24;45.52;94141.84;6130132;23;20185;-83
2022/02/19 03:38:35;;;;;;;4.82;1.50;;;9.20;62.90;;;8.23;45.60;94145.47;6129483;23;20668;-83
2022/02/19 03:41:06;;;;;;;3.67;1.65;;;9.00;62.80;;;8.16;45.96;94154.06;6129442;23;20276;-83
2022/02/19 03:43:33;;;;;;;2.20;1.20;;;9.10;63.00;;;8.14;45.71;94158.72;6081393;23;20201;-84
2022/02/19 03:46:03;;;;;;;1.73;1.20;;;9.00;63.10;;;8.14;45.76;94142.22;6082735;23;20200;-83
2022/02/19 03:48:51;;;;;;;2.60;1.40;;;8.90;63.00;;;8.09;45.98;94150.66;6109606;23;20244;-83
2022/02/19 03:51:20;;;;;;;2.92;1.45;;;8.90;63.10;;;8.05;46.12;94164.28;6105524;23;20244;-83
2022/02/19 03:53:49;;;;;;;3.55;1.83;;;8.90;63.20;;;8.05;46.08;94162.47;6129502;23;20605;-83
2022/02/19 03:56:20;;;;;;;4.00;1.50;;;8.90;63.20;;;8.01;46.57;94148.22;6107236;23;20177;-83
2022/02/19 03:58:54;;;;;;;2.30;1.23;;;8.80;63.30;;;7.97;46.25;94158.25;6108151;23;20232;-83
2022/02/19 04:01:22;;;;;;;2.10;1.40;;;8.80;63.40;;;7.97;46.17;94149.59;6129204;23;20180;-82
2022/02/19 04:03:51;;;;;;;1.90;1.27;;;8.80;63.40;;;7.98;46.58;94149.41;6129807;23;20521;-83
2022/02/19 04:06:19;;;;;;;3.60;1.40;;;8.70;63.40;;;7.95;46.34;94167.28;6104419;23;20173;-83
2022/02/19 04:08:46;;;;;;;3.30;1.50;;;8.80;63.60;;;7.91;46.55;94168.63;6105558;23;20184;-83
2022/02/19 04:11:13;;;;;;;4.53;1.50;;;8.70;63.70;;;7.92;46.67;94147.56;6104682;23;20194;-83
2022/02/19 04:13:43;;;;;;;4.45;1.38;;;8.70;63.80;;;7.92;46.42;94178.91;6105643;23;20264;-82
2022/02/19 04:16:16;;;;;;;3.50;1.30;;;8.70;63.70;;;7.88;46.87;94154.16;6105987;23;20200;-83
2022/02/19 04:18:48;;;;;;;3.13;1.38;;;8.70;64.70;;;7.84;46.88;94148.53;6129298;23;20648;-83
2022/02/19 04:21:17;;;;;;;3.22;1.40;;;8.60;63.60;;;7.78;46.44;94164.16;6106016;23;20197;-83
2022/02/19 04:23:45;;;;;;;2.00;1.58;;;8.60;63.60;;;7.73;46.50;94172.56;6105395;23;20174;-83
2022/02/19 04:26:15;;;;;;;2.75;1.40;;;8.60;63.60;;;7.74;46.73;94173.38;6129037;23;20687;-83
2022/02/19 04:28:46;;;;;;;3.63;1.45;;;8.50;63.60;;;7.71;46.91;94151.06;6106053;23;20170;-82
2022/02/19 04:31:20;;;;;;;4.05;1.52;;;8.50;63.60;;;7.68;46.84;94180.19;6153740;23;20381;-83
2022/02/19 04:33:56;;;;;;;5.55;1.65;;;8.50;64.60;;;7.67;46.94;94161.09;6129436;23;20220;-83
2022/02/19 04:36:23;;;;;;;3.00;1.63;;;8.50;63.70;;;7.66;46.81;94161.28;6129270;23;20177;-83
2022/02/19 04:38:51;;;;;;;2.13;1.50;;;8.40;63.70;;;7.67;46.82;94187.19;6105325;23;20247;-84
2022/02/19 04:41:19;;;;;;;3.90;1.42;;;8.40;63.60;;;7.62;46.47;94176.53;6106506;23;20362;-83
2022/02/19 04:43:47;;;;;;;3.00;1.63;;;8.40;63.60;;;7.61;46.32;94169.69;6083703;23;20173;-83
2022/02/19 04:46:15;;;;;;;3.67;1.40;;;8.40;63.50;;;7.58;46.45;94164.88;6107072;23;20197;-82
2022/02/19 04:48:45;;;;;;;5.03;1.42;;;8.50;63.60;;;7.55;46.67;94173.06;6107860;23;20635;-83
2022/02/19 04:51:12;;;;;;;4.72;1.67;;;8.40;63.60;;;7.53;46.53;94157.59;6131052;23;20652;-83
2022/02/19 04:53:39;;;;;;;6.43;1.50;;;8.30;63.50;;;7.54;46.02;94166.22;6106954;23;20178;-83
2022/02/19 04:56:06;;;;;;;3.88;1.27;;;8.30;63.60;;;7.51;46.62;94172.63;6106900;23;20194;-82
2022/02/19 04:58:35;;;;;;;3.22;1.30;;;8.30;63.60;;;7.48;46.67;94165.19;6131302;23;20193;-83
2022/02/19 05:01:02;;;;;;;3.33;1.50;;;8.30;63.60;;;7.47;46.56;94170.59;6106879;23;20204;-82
2022/02/19 05:03:35;;;;;;;4.65;1.50;;;8.30;63.70;;;7.43;47.03;94171.97;6132147;23;20185;-84
2022/02/19 05:06:14;;;;;;;3.28;1.40;;;8.20;63.80;;;7.39;46.98;94195.03;6133609;23;20200;-83
2022/02/19 05:08:56;;;;;;;2.53;1.40;;;8.20;63.90;;;7.39;47.04;94200.25;6130886;23;20173;-82
2022/02/19 05:11:26;;;;;;;2.35;1.30;;;8.20;63.90;;;7.36;47.24;94224.09;6107178;23;20173;-83
2022/02/19 05:13:54;;;;;;;2.22;1.15;;;8.30;64.00;;;7.35;47.07;94205.03;6082999;23;20181;-83
2022/02/19 05:16:22;;;;;;;7.65;1.92;;;8.20;64.00;;;7.32;47.42;94218.47;6106626;23;20185;-84
2022/02/19 05:19:00;;;;;;;2.50;1.50;;;8.20;64.20;;;7.40;47.19;94221.91;6130467;23;20216;-83
2022/02/19 05:21:30;;;;;;;3.38;1.70;;;8.20;64.30;;;7.45;47.46;94232.63;6107080;23;20260;-83
2022/02/19 05:24:03;;;;;;;4.00;1.23;;;8.10;64.20;;;7.45;47.25;94232.63;6107786;23;20183;-83
2022/02/19 05:26:56;;;;;;;3.33;1.50;;;8.20;64.30;;;7.46;47.27;94229.81;6111864;23;20181;-83
2022/02/19 05:29:24;;;;;;;1.42;1.08;;;8.20;64.20;;;7.52;47.30;94238.69;6155413;23;20197;-82
2022/02/19 05:31:52;;;;;;;2.70;1.30;;;8.30;64.30;;;7.51;47.32;94224.03;6106205;23;20597;-82
2022/02/19 05:34:29;;;;;;;1.98;1.30;;;8.20;64.20;;;7.53;47.44;94237.66;6108258;23;20248;-83
2022/02/19 05:37:00;;;;;;;4.25;1.45;;;8.20;64.20;;;7.55;47.09;94240.91;6130561;23;20177;-82
2022/02/19 05:39:30;;;;;;;3.92;1.40;;;8.20;64.20;;;7.56;47.18;94239.91;6083333;23;20219;-82
2022/02/19 05:41:57;;;;;;;3.83;1.40;;;8.20;64.20;;;7.62;47.03;94228.72;6130564;23;20192;-83
2022/02/19 05:44:29;;;;;;;2.35;1.40;;;8.20;64.30;;;7.65;47.19;94253.63;6084004;23;20276;-83
2022/02/19 05:47:02;;;;;;;2.90;1.45;;;8.30;64.30;;;7.64;46.77;94228.53;6107956;23;20506;-83
2022/02/19 05:49:30;;;;;;;3.75;1.60;;;8.30;64.30;;;7.67;46.93;94234.16;6131226;23;20221;-82
2022/02/19 05:52:29;;;;;;;1.13;1.02;;;8.30;64.30;;;7.69;46.96;94240.00;6073765;23;20204;-82
2022/02/19 05:55:17;;;;;;;2.80;1.20;;;8.30;64.20;;;7.72;46.88;94240.63;6114443;23;20193;-83
2022/02/19 05:57:46;;;;;;;3.42;1.42;;;8.40;64.20;;;7.72;46.97;94261.53;6130689;23;20479;-83
2022/02/19 06:00:15;;;;;;;5.65;1.50;;;8.40;64.10;;;7.68;46.67;94258.47;6130593;23;20209;-82
2022/02/19 06:02:42;;;;;;;2.88;1.27;;;8.40;64.00;;;7.64;46.93;94260.66;6130683;23;20524;-83
2022/02/19 06:05:12;;;;;;;3.13;1.42;;;8.40;64.00;;;7.53;46.53;94266.38;6106397;23;20649;-83
2022/02/19 06:07:45;;;;;;;4.10;1.40;;;8.30;63.80;;;7.48;46.60;94256.53;6131840;23;20219;-82
2022/02/19 06:10:12;;;;;;;4.40;1.23;;;8.30;63.80;;;7.51;46.51;94286.66;6106162;23;20201;-83
2022/02/19 06:12:39;;;;;;;3.72;1.30;;;8.30;63.80;;;7.46;46.39;94286.41;6106453;23;20391;-83
2022/02/19 06:15:13;;;;;;;3.35;1.50;;;8.30;63.50;;;7.46;46.01;94286.41;6107483;23;20197;-83
2022/02/19 06:18:09;;;;;;;4.00;1.38;;;8.20;63.30;;;7.40;46.00;94290.56;6125936;23;20252;-83
2022/02/19 06:20:37;;;;;;;5.43;1.50;;;8.20;63.50;;;7.46;45.97;94305.47;6106276;23;20209;-83
2022/02/19 06:23:13;;;;;;;2.92;1.55;;;8.20;63.40;;;7.48;45.89;94320.94;6107878;23;20240;-83
2022/02/19 06:25:40;;;;;;;3.42;1.45;;;8.20;63.50;;;7.54;45.98;94296.69;6106040;23;20659;-83
2022/02/19 06:28:07;;;;;;;1.40;1.30;;;8.20;63.60;;;7.66;46.12;94310.84;6105933;23;20697;-82
2022/02/19 06:30:40;;;;;;;2.35;1.40;;;8.30;63.70;;;7.73;46.00;94304.91;6107209;23;20590;-83
2022/02/19 06:33:10;;;;;;;4.55;1.35;;;8.30;63.60;;;7.81;45.23;94321.22;6106346;23;20228;-83
2022/02/19 06:35:39;;;;;;;4.43;1.30;;;8.30;63.40;;;7.93;45.62;94324.09;6129717;23;20217;-83
2022/02/19 06:38:15;;;;;;;3.05;1.40;;;8.40;63.50;;;8.00;45.97;94326.78;6129044;23;20188;-82
2022/02/19 06:40:43;;;;;;;3.00;1.30;;;8.50;63.60;;;7.99;45.25;94331.19;6105737;23;20264;-83
2022/02/19 06:43:11;;;;;;;3.40;1.27;;;8.50;63.40;;;8.08;45.52;94333.66;6105872;23;20174;-83
2022/02/19 06:45:41;;;;;;;1.80;1.35;;;8.60;63.50;;;8.09;45.63;94341.31;6129707;23;20197;-83
2022/02/19 06:48:08;;;;;;;3.00;1.30;;;8.60;63.40;;;8.09;45.47;94336.09;6081704;23;20174;-83
2022/02/19 06:50:37;;;;;;;5.13;1.73;;;8.70;63.40;;;8.11;45.83;94344.53;6129666;23;20208;-83
2022/02/19 06:53:07;;;;;;;3.35;1.50;;;8.70;63.40;;;8.15;45.46;94350.19;6083272;23;20174;-83
2022/02/19 06:55:34;;;;;;;7.35;1.48;;;8.70;63.40;;;8.16;45.35;94357.03;6129898;23;20232;-84
2022/02/19 06:58:05;;;;;;;4.78;1.50;;;8.70;63.20;;;8.17;45.14;94343.78;6130305;23;20181;-83
2022/02/19 07:00:39;;;;;;;3.63;1.33;;;8.70;63.20;;;8.21;45.07;94362.47;6106650;23;20260;-83
2022/02/19 07:03:08;;;;;;;3.80;1.50;;;8.80;63.20;;;8.27;45.26;94377.41;6105388;23;20605;-83
2022/02/19 07:05:40;;;;;;;4.68;1.42;;;8.80;63.30;;;8.28;44.86;94373.00;6129958;23;20197;-83
2022/02/19 07:08:12;;;;;;;3.10;1.67;;;8.80;62.80;;;8.27;44.51;94398.28;6129895;23;20212;-83
2022/02/19 07:10:40;;;;;;;4.85;1.65;;;8.80;62.80;;;8.24;43.70;94387.41;6104850;23;20197;-82
2022/02/19 07:13:07;;;;;;;3.90;1.35;;;8.80;62.30;;;8.20;43.40;94362.69;6105665;23;20188;-83
2022/02/19 07:15:34;;;;;;;3.17;1.30;;;8.90;62.20;;;8.23;42.98;94411.94;6105690;23;20546;-83
2022/02/19 07:18:14;;;;;;;4.10;1.30;;;8.90;61.80;;;8.17;42.33;94392.59;6129978;23;20177;-83
2022/02/19 07:20:49;;;;;;;2.42;1.15;;;8.80;61.10;;;8.16;41.59;94396.22;6107018;23;20208;-83
2022/02/19 07:23:16;;;;;;;2.97;1.60;;;8.80;60.50;;;8.15;41.33;94416.31;6105585;23;20173;-83
2022/02/19 07:25:44;;;;;;;8.40;1.60;;;8.70;60.60;;;8.13;40.48;94438.38;6129840;23;20197;-84
2022/02/19 07:28:11;;;;;;;2.17;1.10;;;8.80;60.20;;;8.14;40.47;94417.31;6105825;23;20200;-84
2022/02/19 07:30:39;;;;;;;2.60;1.52;;;8.70;60.00;;;8.13;40.07;94436.59;6105313;23;20213;-83
2022/02/19 07:33:08;;;;;;;6.18;1.88;;;8.70;59.60;;;8.17;40.70;94418.72;6082848;23;20187;-82
2022/02/19 07:35:46;;;;;;;4.07;1.40;;;8.70;60.10;;;8.18;41.37;94431.59;6107459;23;20641;-84
2022/02/19 07:38:17;;;;;;;3.60;1.50;;;8.70;60.40;;;8.19;41.48;94429.81;6106011;23;20178;-82
2022/02/19 07:40:45;;;;;;;3.70;1.33;;;8.80;60.60;;;8.23;42.01;94436.25;6104963;23;20512;-83
2022/02/19 07:43:12;;;;;;;4.43;1.67;;;8.70;60.70;;;8.24;41.55;94448.34;6105428;23;20201;-84
2022/02/19 07:46:01;;;;;;;3.83;1.90;;;8.80;60.50;;;8.23;41.94;94449.31;6133419;23;20248;-83
2022/02/19 07:48:47;;;;;;;2.90;1.42;;;8.80;60.70;;;8.23;42.30;94466.81;6134439;23;20185;-83
2022/02/19 08:00:05;;;;;;;2.55;1.42;;;8.80;61.00;;;8.29;42.23;94473.91;6129282;23;20287;-83
2022/02/19 08:02:41;;;;;;;2.83;1.50;;;8.80;61.00;;;8.39;42.60;94489.25;6131451;23;20173;-83
2022/02/19 08:05:09;;;;;;;4.28;1.70;;;9.00;61.30;;;8.44;42.55;94502.56;6105411;23;20640;-83
2022/02/19 08:07:43;;;;;;;3.15;1.50;;;8.90;61.20;;;8.53;42.70;94490.19;6106442;23;20224;-82
2022/02/19 08:10:10;;;;;;;4.00;1.50;;;9.00;61.50;;;8.65;43.04;94509.59;6104924;23;20207;-83
2022/02/19 08:12:38;;;;;;;4.70;1.50;;;9.00;61.70;;;8.75;42.79;94504.84;6104855;23;20174;-83
2022/02/19 08:15:06;;;;;;;4.15;1.42;;;9.10;61.70;;;8.83;42.57;94516.16;6130917;23;20248;-83
2022/02/19 08:17:33;;;;;;;3.92;1.50;;;9.20;61.70;;;8.89;42.60;94504.94;6131764;23;20165;-83
2022/02/19 08:20:00;;;;;;;2.83;1.60;;;9.30;61.80;;;8.96;42.97;94509.19;6130958;23;20208;-84
2022/02/19 08:22:27;;;;;;;3.58;1.60;;;9.30;61.90;;;9.01;42.90;94499.97;6131418;23;20185;-83
2022/02/19 08:24:54;;;;;;;5.45;1.90;;;9.30;62.00;;;9.16;43.42;94518.97;6107042;23;20197;-83
2022/02/19 08:27:21;;;;;;;2.35;1.40;;;9.30;62.00;;;9.24;42.99;94524.06;6107460;23;20173;-83
2022/02/19 08:29:49;;;;;;;4.82;1.50;;;9.50;62.10;;;9.32;42.81;94523.09;6131577;23;20711;-84
2022/02/19 08:32:16;;;;;;;4.38;1.90;;;9.50;61.80;;;9.34;42.51;94541.22;6107310;23;20183;-83
2022/02/19 08:34:43;;;;;;;4.43;1.70;;;9.60;61.70;;;9.27;42.47;94518.44;6130966;23;20231;-83
2022/02/19 08:37:12;;;;;;;3.35;1.80;;;9.60;61.50;;;9.24;42.14;94552.84;6107494;23;20180;-84
2022/02/19 08:39:39;;;;;;;4.07;1.92;;;9.60;61.30;;;9.19;41.82;94554.41;6107014;23;20648;-83
2022/02/19 08:42:09;;;;;;;5.95;2.00;;;9.60;61.00;;;9.21;42.52;94527.06;6107162;23;20273;-83
2022/02/19 08:44:36;;;;;;;4.85;1.65;;;9.60;61.40;;;9.23;41.90;94539.97;6107034;23;20201;-83
2022/02/19 08:47:03;;;;;;;7.28;1.70;;;9.60;61.20;;;9.33;41.63;94556.13;6107342;23;20169;-83
2022/02/19 08:49:32;;;;;;;3.13;1.50;;;9.60;60.90;;;9.31;40.74;94557.31;6106703;23;20200;-83
2022/02/19 08:52:00;;;;;;;2.90;1.42;;;9.70;60.50;;;9.37;41.60;94580.09;6107207;23;20178;-83
2022/02/19 08:54:27;;;;;;;2.88;1.63;;;9.70;61.00;;;9.39;40.54;94541.47;6130956;23;20255;-83
2022/02/19 08:56:54;;;;;;;3.90;1.60;;;9.70;60.30;;;9.38;40.79;94560.78;6130734;23;20169;-84
2022/02/19 08:59:22;;;;;;;23.52;2.88;;;9.70;60.50;;;9.36;41.18;94539.22;6131195;23;20197;-83
2022/02/19 09:01:49;;;;;;;4.38;1.80;;;9.70;60.50;;;9.30;40.25;94548.63;6106723;23;20177;-82
2022/02/19 09:04:16;;;;;;;6.90;2.30;;;9.70;60.10;;;9.22;40.49;94582.81;6130985;23;20216;-83
2022/02/19 09:06:44;;;;;;;5.80;1.55;;;9.70;60.10;;;9.20;40.99;94569.91;6107078;23;20185;-83
2022/02/19 09:09:12;;;;;;;4.57;1.73;;;9.60;60.30;;;9.22;40.96;94572.34;6083035;23;20181;-83
2022/02/19 09:11:39;;;;;;;4.70;1.77;;;9.60;60.00;;;9.26;40.15;94569.19;6106648;23;20212;-83
2022/02/19 09:14:07;;;;;;;6.20;2.05;;;9.60;59.80;;;9.28;38.46;94606.41;6155403;23;20244;-83
2022/02/19 09:16:36;;;;;;;4.03;1.60;;;9.60;58.00;;;9.26;38.71;94573.59;6155521;23;20193;-83
2022/02/19 09:19:05;;;;;;;3.63;1.45;;;9.60;58.70;;;9.20;38.47;94596.06;6106948;23;20173;-83
2022/02/19 09:21:34;;;;;;;5.10;1.60;;;9.60;58.00;;;9.19;39.10;94597.09;6130781;23;20240;-83
2022/02/19 09:24:01;;;;;;;4.22;1.55;;;9.60;58.50;;;9.15;39.63;94595.84;6106440;23;20591;-83
2022/02/19 09:26:28;;;;;;;8.10;1.73;;;9.60;58.20;;;9.21;38.76;94602.13;6082183;23;20177;-83
2022/02/19 09:28:56;;;;;;;2.45;1.40;;;9.60;58.90;;;9.19;38.01;94609.38;6131117;23;20174;-82
2022/02/19 09:31:24;;;;;;;3.22;1.75;;;9.60;57.50;;;9.15;37.96;94608.13;6106371;23;20178;-84
2022/02/19 09:33:51;;;;;;;4.88;1.70;;;9.50;57.00;;;9.09;38.26;94605.28;6082640;23;20680;-84
2022/02/19 09:36:18;;;;;;;3.22;1.60;;;9.50;58.70;;;9.09;37.35;94662.03;6130779;23;20193;-83
2022/02/19 09:38:47;;;;;;;4.20;1.40;;;9.50;56.40;;;9.05;36.82;94619.72;6106432;23;20182;-83
2022/02/19 09:41:15;;;;;;;4.75;1.90;;;9.40;55.50;;;9.05;37.52;94624.16;6155558;23;20353;-83
2022/02/19 09:43:42;;;;;;;3.28;1.40;;;9.50;56.50;;;9.06;36.34;94629.19;6130180;23;20189;-82
2022/02/19 09:46:13;;;;;;;3.10;1.55;;;9.40;55.70;;;9.06;37.33;94636.25;6130769;23;20190;-82
2022/02/19 09:48:46;;;;;;;6.13;1.58;;;9.50;55.50;;;9.06;35.39;94641.47;6106405;23;20507;-83
2022/02/19 09:51:14;;;;;;;4.88;1.60;;;9.40;54.90;;;9.08;34.42;94697.03;6130625;23;20194;-83
2022/02/19 09:53:41;;;;;;;2.55;1.20;;;9.40;54.20;;;9.10;35.88;94643.50;6130743;23;20185;-83
2022/02/19 09:56:08;;;;;;;1.58;1.23;;;9.40;55.30;;;9.14;35.88;94688.41;6130147;23;20204;-83
2022/02/19 09:58:35;;;;;;;2.78;1.30;;;9.40;55.20;;;9.16;34.20;94643.78;6082336;23;20184;-83
2022/02/19 10:01:23;;;;;;;3.20;1.48;;;9.40;53.80;;;9.17;34.99;94661.91;6105887;23;20265;-84
2022/02/19 10:04:02;;;;;;;6.88;1.85;;;9.50;54.00;;;9.24;35.15;94664.53;6106565;23;20227;-83
2022/02/19 10:06:40;;;;;;;4.28;1.98;;;9.50;54.40;;;9.26;34.69;94665.19;6106013;23;20193;-83
2022/02/19 10:09:19;;;;;;;3.63;1.70;;;9.50;54.40;;;9.34;35.82;94643.28;6106518;23;20193;-82
2022/02/19 10:11:48;;;;;;;1.77;1.30;;;9.60;55.50;;;9.41;35.88;94671.13;6130708;23;20318;-83
2022/02/19 10:14:37;;;;;;;4.28;1.50;;;9.70;55.60;;;9.49;35.37;94706.84;6156343;23;20225;-83
2022/02/19 10:17:17;;;;;;;2.30;1.40;;;9.70;54.40;;;9.49;34.98;94677.25;6154800;23;20165;-83
2022/02/19 10:20:17;;;;;;;4.20;1.40;;;9.70;54.30;;;9.43;34.45;94668.31;6130408;23;20221;-84
2022/02/19 10:22:44;;;;;;;2.78;1.30;;;9.70;52.70;;;9.47;34.70;94671.38;6115817;23;20182;-83
2022/02/19 10:25:16;;;;;;;2.83;1.33;;;9.80;54.10;;;9.52;35.19;94685.53;6082247;23;20280;-83
2022/02/19 10:27:49;;;;;;;4.45;2.03;;;9.80;54.40;;;9.56;34.92;94684.13;6130550;23;20169;-84
2022/02/19 10:30:19;;;;;;;4.00;1.45;;;9.90;54.20;;;9.63;35.37;94684.19;6130947;23;20197;-83
2022/02/19 10:32:52;;;;;;;2.42;1.60;;;9.80;54.70;;;9.71;36.00;94684.00;6130852;23;20179;-84
2022/02/19 10:35:33;;;;;;;3.78;1.60;;;10.00;53.40;;;9.76;34.03;94686.88;6130432;23;20228;-84
2022/02/19 10:38:03;;;;;;;3.17;1.40;;;10.00;51.10;;;9.78;34.78;94692.72;6105963;23;20178;-83
2022/02/19 10:40:48;;;;;;;2.60;1.42;;;10.00;52.60;;;9.83;35.08;94694.78;6105786;23;20232;-83
2022/02/19 10:43:22;;;;;;;3.40;1.63;;;10.10;52.70;;;9.86;33.93;94704.88;6130444;23;20216;-83
2022/02/19 10:45:59;;;;;;;2.90;1.55;;;10.10;51.30;;;9.90;33.73;94677.28;6109109;23;20221;-84
2022/02/19 10:48:35;;;;;;;3.53;1.52;;;10.10;51.40;;;9.92;33.92;94698.03;6130506;23;20241;-85
2022/02/19 10:51:15;;;;;;;4.32;1.50;;;10.20;51.40;;;9.96;34.00;94694.06;6106198;23;20208;-83
2022/02/19 10:53:55;;;;;;;5.72;1.50;;;10.20;50.90;;;9.94;33.91;94720.44;6130837;23;20162;-83